Terminal Aerodrome Forecast
Issued by NWS Rapid City, SD

Home | Current Version | Previous Version | Text Only | Print | Product List | Glossary Off
Versions: 1 2 3 4 5 6 7 8 9 10 11 12 13 14 15 16 17 18

595
FTUS43 KUNR 042320
TAFRAP
TAF
KRAP 042320Z 0500/0524 31010KT P6SM BKN100
     FM051300 33015G25KT P6SM -SHSN BKN015 OVC060
     FM051700 33025G35KT P6SM BKN040=

USA.gov is the U.S. government's official web portal to all federal, state and local government web resources and services.